Flight Track Log - Related Links

Times and Time Zones

All times are in EDT time to prevent confusion due to time zone crossing. See the N868DB flight status page for this flight to view local times or setup timezone preferences in your user account.

Time Position Orientation Groundspeed Altitude Reporting Facility
EDT Latitude Longitude Course Direction KTS MPH feet Rate Location/Type
Mon 07:50:10 PM 29.6353 -95.2892 178° South 148 170 1,300  Level Houston Center
Mon 07:51:08 PM 29.6144 -95.2883 178° South 210 242 4,000 3,915 Climbing Houston Center
Mon 07:52:08 PM 29.6575 -95.2242 52° Northeast 244 281 9,000 2,852 Climbing Houston Center
Mon 07:53:10 PM 29.7331 -95.1836 25° Northeast 319 367 9,800 1,597 Climbing Houston Center
Mon 07:54:12 PM 29.8108 -95.2250 335° Northwest 307 353 12,300 2,565 Climbing Houston Center
Mon 07:55:14 PM 29.8919 -95.2669 336° Northwest 315 362 15,100 1,756 Climbing Houston Center
Mon 07:56:15 PM 29.9825 -95.3058 340° North 343 395 15,900 1,366 Climbing Houston Center
Mon 07:57:17 PM 30.0842 -95.3367 345° North 369 425 17,900 2,226 Climbing Houston Center
Mon 07:58:19 PM 30.2069 -95.3747 345° North 377 434 20,500 2,081 Climbing Houston Center
Mon 07:59:21 PM 30.3136 -95.4081 345° North 392 451 22,200 1,790 Climbing Houston Center
Mon 08:00:23 PM 30.4228 -95.4433 344° North 406 467 24,200 1,694 Climbing Houston Center
Mon 08:01:25 PM 30.5333 -95.4769 345° North 406 467 25,700 1,366 Climbing Houston Center
Mon 08:02:26 PM 30.6489 -95.5008 350° North 416 479 27,000 1,317 Climbing Houston Center
Mon 08:03:28 PM 30.7714 -95.5297 349° North 426 490 28,400 1,306 Climbing Houston Center
Mon 08:04:30 PM 30.8908 -95.5564 349° North 430 495 29,700 1,113 Climbing Houston Center
Mon 08:05:32 PM 31.0125 -95.5847 349° North 436 502 30,700 968 Climbing Houston Center
Mon 08:06:34 PM 31.1369 -95.6125 349° North 446 513 31,700 634 Climbing Houston Center
Mon 08:07:35 PM 31.2892 -95.6486 349° North 458 527 32,000  Climbing Houston Center
Mon 08:08:32 PM 31.3803 -95.6786 344° North 459 528 31,700 -706 Descending Fort Worth Center
Mon 08:09:34 PM 31.5142 -95.7661 331° Northwest 460 529 30,600 -1,016 Descending Fort Worth Center
Mon 08:10:36 PM 31.6106 -95.8528 323° Northwest 451 519 29,600 -1,500 Descending Fort Worth Center
Mon 08:11:38 PM 31.6964 -95.9461 317° Northwest 428 493 27,500 -2,323 Descending Fort Worth Center
Mon 08:12:40 PM 31.7803 -96.0369 317° Northwest 417 480 24,800 -2,613 Descending Fort Worth Center
Mon 08:13:42 PM 31.8672 -96.1300 318° Northwest 420 483 22,100 -2,516 Descending Fort Worth Center
Mon 08:14:44 PM 31.9467 -96.2169 317° Northwest 404 465 19,600 -2,371 Descending Fort Worth Center
Mon 08:15:46 PM 32.0258 -96.3019 318° Northwest 371 427 17,200 -2,468 Descending Fort Worth Center
Mon 08:16:48 PM 32.1106 -96.3947 317° Northwest 348 400 14,500 -2,419 Descending Fort Worth Center
Mon 08:17:50 PM 32.1836 -96.4731 318° Northwest 352 405 12,200 -2,226 Descending Fort Worth Center
Mon 08:18:52 PM 32.2547 -96.5508 317° Northwest 329 379 9,900 -1,548 Descending Fort Worth Center
Mon 08:19:54 PM 32.3161 -96.6133 319° Northwest 294 338 9,000 -629 Descending Fort Worth Center
Mon 08:20:56 PM 32.3669 -96.6908 308° West 292 336 8,600 -823 Descending Fort Worth Center
Mon 08:21:58 PM 32.3853 -96.7786 284° West 283 326 7,300 -1,258 Descending Fort Worth Center
Mon 08:23:00 PM 32.4006 -96.8653 282° West 276 318 6,000 -871 Descending Fort Worth Center
Mon 08:24:02 PM 32.4350 -96.9522 295° West 285 328 5,500 -677 Descending Fort Worth Center
Mon 08:25:04 PM 32.5022 -97.0083 325° Northwest 288 331 4,600 -726 Descending Fort Worth Center
Mon 08:26:06 PM 32.5689 -97.0622 326° Northwest 291 335 4,000 -290 Descending Fort Worth Center
Mon 08:27:08 PM 32.6428 -97.1189 327° Northwest 292 336 4,000  Level Fort Worth Center
Mon 08:28:10 PM 32.7092 -97.1708 327° Northwest 289 333 4,000 -242 Level Fort Worth Center
Mon 08:29:12 PM 32.7761 -97.2136 332° Northwest 276 318 3,500 -532 Descending Fort Worth Center
Mon 08:30:14 PM 32.8472 -97.2442 340° North 256 295 2,900 -581 Descending Fort Worth Center
Mon 08:31:16 PM 32.8825 -97.3031 306° West 236 272 2,300 -585 Descending Fort Worth Center
Mon 08:32:17 PM 32.8731 -97.3650 260° West 173 199 1,700 -585 Descending Fort Worth Center
Mon 08:33:19 PM 32.8469 -97.3664 183° South 93 107 1,100 -484 Descending Fort Worth Center
Mon 08:34:21 PM 32.8214 -97.3628 173° South 92 106 700 -387 Descending Fort Worth Center

Login

Don't have an account? Register now (free) for customized features, flight alerts, and more!